createdAt,value
2022-10-12T00:00:58.151Z,102109.69
2022-10-12T00:03:24.863Z,102116.66
2022-10-12T00:06:02.480Z,102116.66
2022-10-12T00:08:29.504Z,102113.06
2022-10-12T00:10:56.294Z,102113.84
2022-10-12T00:13:23.095Z,102117.38
2022-10-12T00:15:49.833Z,102117.28
2022-10-12T00:18:16.789Z,102119.00
2022-10-12T00:20:43.479Z,102118.97
2022-10-12T00:23:10.390Z,102119.81
2022-10-12T00:25:38.370Z,102123.28
2022-10-12T00:28:05.508Z,102122.34
2022-10-12T00:30:32.346Z,102121.44
2022-10-12T00:32:59.056Z,102115.25
2022-10-12T00:35:28.390Z,102126.63
2022-10-12T00:37:55.377Z,102128.38
2022-10-12T00:40:23.176Z,102123.06
2022-10-12T00:42:49.963Z,102117.72
2022-10-12T00:45:16.749Z,102119.47
2022-10-12T00:47:56.304Z,102121.16
2022-10-12T00:50:32.246Z,102123.72
2022-10-12T00:53:10.699Z,102120.13
2022-10-12T00:55:39.598Z,102122.72
2022-10-12T00:58:08.340Z,102124.41
2022-10-12T01:00:36.948Z,102119.94
2022-10-12T01:03:04.518Z,102121.66
2022-10-12T01:05:31.224Z,102122.47
2022-10-12T01:07:59.689Z,102118.03
2022-10-12T01:10:26.900Z,102124.16
2022-10-12T01:12:53.697Z,102123.25
2022-10-12T01:15:20.592Z,102124.94
2022-10-12T01:17:47.212Z,102117.88
2022-10-12T01:20:25.961Z,102116.94
2022-10-12T01:23:18.641Z,102120.38
2022-10-12T01:26:04.204Z,102120.28
2022-10-12T01:28:55.813Z,102104.31
2022-10-12T01:31:32.767Z,102113.97
2022-10-12T01:34:09.800Z,102107.75
2022-10-12T01:36:39.446Z,102110.38
2022-10-12T01:39:12.774Z,102109.47
2022-10-12T01:41:50.825Z,102101.47
2022-10-12T01:44:22.001Z,102105.81
2022-10-12T01:46:48.726Z,102110.19
2022-10-12T01:49:18.033Z,102105.78
2022-10-12T01:52:14.892Z,102098.66
2022-10-12T01:54:56.618Z,102102.13
2022-10-12T01:57:41.216Z,102097.63
2022-10-12T02:00:10.951Z,102099.31
2022-10-12T02:02:52.532Z,102092.19
2022-10-12T02:05:50.757Z,102099.19
2022-10-12T02:08:31.908Z,102089.44
2022-10-12T02:11:06.858Z,102090.22
2022-10-12T02:13:36.736Z,102092.84
2022-10-12T02:16:04.799Z,102094.53
2022-10-12T02:18:33.132Z,102089.25
2022-10-12T02:21:00.893Z,102084.78
2022-10-12T02:23:28.274Z,102076.81
2022-10-12T02:25:56.230Z,102080.28
2022-10-12T02:28:24.482Z,102077.63
2022-10-12T02:31:00.910Z,102078.41
2022-10-12T02:33:42.531Z,102080.16
2022-10-12T02:36:13.144Z,102076.53
2022-10-12T02:38:44.147Z,102077.38
2022-10-12T02:41:27.601Z,102061.47
2022-10-12T02:43:57.906Z,102068.44
2022-10-12T02:46:25.884Z,102064.03
2022-10-12T02:48:54.673Z,102065.78
2022-10-12T02:51:21.989Z,102062.97
2022-10-12T02:53:48.697Z,102068.25
2022-10-12T02:56:16.309Z,102062.00
2022-10-12T02:58:43.936Z,102060.25
2022-10-12T03:01:10.801Z,102056.66
2022-10-12T03:03:37.668Z,102057.47
2022-10-12T03:06:04.655Z,102067.13
2022-10-12T03:08:31.421Z,102055.63
2022-10-12T03:11:02.962Z,102065.25
2022-10-12T03:13:29.832Z,102059.03
2022-10-12T03:16:07.533Z,102054.59
2022-10-12T03:18:34.412Z,102058.00
2022-10-12T03:21:01.287Z,102059.72
2022-10-12T03:23:28.385Z,102051.72
2022-10-12T03:25:55.231Z,102060.50
2022-10-12T03:28:22.027Z,102053.41
2022-10-12T03:30:48.849Z,102049.84
2022-10-12T03:33:15.537Z,102045.41
2022-10-12T03:35:45.984Z,102040.06
2022-10-12T03:38:13.673Z,102044.44
2022-10-12T03:40:40.691Z,102042.66
2022-10-12T03:43:07.915Z,102039.06
2022-10-12T03:45:34.942Z,102034.63
2022-10-12T03:48:04.914Z,102039.88
2022-10-12T03:50:34.679Z,102030.97
2022-10-12T03:53:02.853Z,102034.44
2022-10-12T03:55:29.678Z,102027.38
2022-10-12T03:57:56.366Z,102037.94
2022-10-12T04:00:23.095Z,102030.88
2022-10-12T04:02:49.792Z,102039.66
2022-10-12T04:05:16.556Z,102032.50
2022-10-12T04:07:43.304Z,102035.13
2022-10-12T04:10:10.026Z,102036.88
2022-10-12T04:12:36.735Z,102037.72
2022-10-12T04:15:04.437Z,102030.59
2022-10-12T04:17:31.155Z,102039.38
2022-10-12T04:19:57.853Z,102034.94
2022-10-12T04:22:24.810Z,102035.78
2022-10-12T04:24:51.682Z,102031.38
2022-10-12T04:27:18.386Z,102035.69
2022-10-12T04:29:45.179Z,102028.63
2022-10-12T04:32:12.814Z,102024.22
2022-10-12T04:34:39.854Z,102029.44
2022-10-12T04:37:06.648Z,102034.66
2022-10-12T04:39:33.718Z,102029.31
2022-10-12T04:42:00.465Z,102028.44
2022-10-12T04:44:31.989Z,102036.25
2022-10-12T04:47:00.494Z,102036.25
2022-10-12T04:49:27.196Z,102030.03
2022-10-12T04:51:53.895Z,102028.25
2022-10-12T04:54:20.622Z,102030.00
2022-10-12T04:56:48.249Z,102043.13
2022-10-12T04:59:15.560Z,102036.94
2022-10-12T05:01:42.438Z,102026.38
2022-10-12T05:04:09.212Z,102027.25
2022-10-12T05:06:35.913Z,102022.00
2022-10-12T05:09:03.255Z,102021.03
2022-10-12T05:11:30.046Z,102026.25
2022-10-12T05:13:56.756Z,102027.06
2022-10-12T05:16:23.875Z,102016.50
2022-10-12T05:18:50.607Z,102020.00
2022-10-12T05:21:17.365Z,102032.28
2022-10-12T05:23:44.563Z,102026.09
2022-10-12T05:26:11.274Z,102019.84
2022-10-12T05:28:41.171Z,102031.28
2022-10-12T05:31:08.383Z,102029.47
2022-10-12T05:33:35.069Z,102024.19
2022-10-12T05:36:01.830Z,102028.56
2022-10-12T05:38:28.531Z,102023.25
2022-10-12T05:41:00.043Z,102021.50
2022-10-12T05:43:27.534Z,102018.81
2022-10-12T05:45:54.655Z,102018.78
2022-10-12T05:48:21.344Z,102020.50
2022-10-12T05:50:48.074Z,102015.25
2022-10-12T05:53:14.813Z,102015.25
2022-10-12T05:55:51.890Z,102020.50
2022-10-12T05:58:18.599Z,102015.31
2022-10-12T06:00:45.324Z,102015.31
2022-10-12T06:03:17.548Z,102015.44
2022-10-12T06:05:45.438Z,102012.84
2022-10-12T06:08:12.181Z,102010.25
2022-10-12T06:13:17.991Z,102013.03
2022-10-12T06:15:45.987Z,102009.56
2022-10-12T06:18:13.727Z,102008.75
2022-10-12T06:20:40.496Z,102005.34
2022-10-12T06:23:07.437Z,102010.69
2022-10-12T06:25:34.214Z,102014.34
2022-10-12T06:28:00.981Z,102013.59
2022-10-12T06:30:27.762Z,102009.31
2022-10-12T06:32:54.572Z,102008.53
2022-10-12T06:35:21.393Z,102003.41
2022-10-12T06:37:51.558Z,102006.13
2022-10-12T06:40:19.082Z,102009.78
2022-10-12T06:42:45.857Z,102011.72
2022-10-12T06:45:12.573Z,102008.31
2022-10-12T06:47:39.358Z,102013.78
2022-10-12T06:50:07.130Z,102013.03
2022-10-12T06:52:33.976Z,102012.31
2022-10-12T06:55:00.670Z,102010.72
2022-10-12T06:57:27.366Z,102011.75
2022-10-12T06:59:54.071Z,102011.88
2022-10-12T07:02:20.775Z,102014.66
2022-10-12T07:04:51.570Z,102008.63
2022-10-12T07:07:18.905Z,102006.94
2022-10-12T07:09:45.619Z,102019.50
2022-10-12T07:12:12.388Z,102013.50
2022-10-12T07:14:39.134Z,102010.22
2022-10-12T07:17:06.072Z,102014.09
2022-10-12T07:19:32.853Z,102016.13
2022-10-12T07:21:59.579Z,102012.03
2022-10-12T07:24:34.878Z,102015.84
2022-10-12T07:27:07.517Z,102011.66
2022-10-12T07:29:35.097Z,102017.13
2022-10-12T07:32:01.798Z,102006.66
2022-10-12T07:34:29.192Z,102006.84
2022-10-12T07:36:59.481Z,102008.81
2022-10-12T07:39:26.806Z,102012.50
2022-10-12T07:41:53.774Z,102009.19
2022-10-12T07:44:21.099Z,102014.72
2022-10-12T07:46:48.847Z,102011.38
2022-10-12T07:49:15.992Z,102015.19
2022-10-12T07:51:42.848Z,102015.34
2022-10-12T07:54:09.690Z,102019.94
2022-10-12T07:56:36.490Z,102021.00
2022-10-12T07:59:04.174Z,102023.75
2022-10-12T08:01:32.417Z,102015.94
2022-10-12T08:04:01.858Z,102018.72
2022-10-12T08:06:32.385Z,102019.75
2022-10-12T08:09:00.369Z,102021.66
2022-10-12T08:11:27.124Z,102027.06
2022-10-12T08:13:53.940Z,102021.00
2022-10-12T08:16:21.274Z,102017.63
2022-10-12T08:18:48.004Z,102023.03
2022-10-12T08:21:16.781Z,102019.63
2022-10-12T08:23:45.000Z,102027.72
2022-10-12T08:26:12.787Z,102023.44
2022-10-12T08:28:39.630Z,102029.75
2022-10-12T08:31:11.962Z,102027.25
2022-10-12T08:33:38.741Z,102023.03
2022-10-12T08:36:06.963Z,102021.41
2022-10-12T08:38:36.508Z,102020.66
2022-10-12T08:41:26.430Z,102028.78
2022-10-12T08:44:17.589Z,102016.53
2022-10-12T08:46:44.432Z,102021.97
2022-10-12T08:49:23.794Z,102023.84
2022-10-12T08:51:54.218Z,102023.09
2022-10-12T08:54:22.849Z,102014.34
2022-10-12T08:56:53.240Z,102018.88
2022-10-12T08:59:19.982Z,102010.97
2022-10-12T09:02:01.707Z,102014.56
2022-10-12T09:04:47.700Z,102021.75
2022-10-12T09:07:31.816Z,102016.50
2022-10-12T09:10:17.364Z,102016.53
2022-10-12T09:12:59.777Z,102012.13
2022-10-12T09:15:33.387Z,102006.03
2022-10-12T09:18:01.280Z,102004.34
2022-10-12T09:20:27.904Z,102012.34
2022-10-12T09:23:25.320Z,102007.06
2022-10-12T09:26:16.880Z,102016.88
2022-10-12T09:28:57.655Z,102008.97
2022-10-12T09:31:43.718Z,102010.81
2022-10-12T09:34:11.990Z,102000.19
2022-10-12T09:36:41.460Z,101999.38
2022-10-12T09:39:15.768Z,101989.63
2022-10-12T09:41:44.720Z,101992.34
2022-10-12T09:44:31.948Z,101996.81
2022-10-12T09:47:02.387Z,101987.97
2022-10-12T09:49:53.109Z,101993.38
2022-10-12T09:52:22.736Z,101988.09
2022-10-12T09:54:53.219Z,101993.41
2022-10-12T09:57:24.145Z,101982.78
2022-10-12T09:59:51.582Z,101979.25
2022-10-12T10:02:20.611Z,101968.63
2022-10-12T10:04:49.134Z,101977.50
2022-10-12T10:07:30.294Z,101974.00
2022-10-12T10:10:14.833Z,101969.56
2022-10-12T10:12:53.364Z,101973.16
2022-10-12T10:15:32.872Z,101972.31
2022-10-12T10:18:01.548Z,101975.91
2022-10-12T10:20:36.596Z,101972.34
2022-10-12T10:23:04.331Z,101968.81
2022-10-12T10:25:31.305Z,101974.19
2022-10-12T10:28:26.771Z,101966.22
2022-10-12T10:30:58.490Z,101965.31
2022-10-12T10:33:25.216Z,101964.44
2022-10-12T10:35:55.221Z,101974.22
2022-10-12T10:38:21.992Z,101968.91
2022-10-12T10:40:52.840Z,101967.16
2022-10-12T10:43:23.860Z,101965.34
2022-10-12T10:45:52.543Z,101960.94
2022-10-12T10:48:26.904Z,101953.84
2022-10-12T10:51:00.915Z,101951.16
2022-10-12T10:53:44.976Z,101946.72
2022-10-12T10:56:30.191Z,101941.41
2022-10-12T10:58:59.899Z,101937.88
2022-10-12T11:01:36.620Z,101946.78
2022-10-12T11:04:13.434Z,101938.75
2022-10-12T11:06:53.893Z,101948.53
2022-10-12T11:09:25.805Z,101936.13
2022-10-12T11:12:04.513Z,101938.78
2022-10-12T11:14:35.281Z,101933.47
2022-10-12T11:17:05.476Z,101930.81
2022-10-12T11:19:37.205Z,101926.34
2022-10-12T11:22:08.672Z,101924.56
2022-10-12T11:24:40.864Z,101921.88
2022-10-12T11:27:21.996Z,101904.09
2022-10-12T11:30:02.997Z,101915.66
2022-10-12T11:32:38.911Z,101910.31
2022-10-12T11:35:07.671Z,101906.78
2022-10-12T11:38:01.736Z,101903.25
2022-10-12T11:41:00.200Z,101902.38
2022-10-12T11:43:26.413Z,101898.81
2022-10-12T11:45:55.416Z,101895.22
2022-10-12T11:48:28.813Z,101895.25
2022-10-12T11:51:00.066Z,101883.66
2022-10-12T11:53:48.835Z,101884.53
2022-10-12T11:56:42.281Z,101873.84
2022-10-12T11:59:24.540Z,101876.50
2022-10-12T12:02:05.775Z,101878.28
2022-10-12T12:04:43.616Z,101867.59
2022-10-12T12:07:17.812Z,101872.03
2022-10-12T12:09:50.297Z,101867.59
2022-10-12T12:12:25.842Z,101860.44
2022-10-12T12:14:55.617Z,101861.31
2022-10-12T12:17:22.243Z,101861.31
2022-10-12T12:19:53.741Z,101858.63
2022-10-12T12:22:31.776Z,101854.13
2022-10-12T12:25:08.354Z,101855.00
2022-10-12T12:27:38.734Z,101862.09
2022-10-12T12:30:22.227Z,101852.28
2022-10-12T12:32:57.857Z,101854.03
2022-10-12T12:35:25.916Z,101845.09
2022-10-12T12:38:23.930Z,101841.53
2022-10-12T12:40:59.830Z,101836.16
2022-10-12T12:43:29.472Z,101830.78
2022-10-12T12:46:00.220Z,101836.09
2022-10-12T12:48:39.454Z,101826.28
2022-10-12T12:51:08.408Z,101824.50
2022-10-12T12:53:51.572Z,101822.69
2022-10-12T12:56:24.700Z,101823.59
2022-10-12T12:59:01.184Z,101811.97
2022-10-12T13:01:27.915Z,101805.69
2022-10-12T13:04:04.611Z,101803.03
2022-10-12T13:07:09.001Z,101806.56
2022-10-12T13:10:02.212Z,101802.06
2022-10-12T13:13:05.977Z,101801.19
2022-10-12T13:16:57.313Z,101808.31
2022-10-12T13:19:12.006Z,101804.75
2022-10-12T13:21:45.408Z,101797.56
2022-10-12T13:24:16.838Z,101791.28
2022-10-12T13:26:45.624Z,101788.63
2022-10-12T13:29:20.320Z,101787.72
2022-10-12T13:31:48.901Z,101783.22
2022-10-12T13:34:20.180Z,101784.13
2022-10-12T13:36:51.597Z,101778.72
2022-10-12T13:39:20.666Z,101772.50
2022-10-12T13:41:49.928Z,101771.59
2022-10-12T13:44:26.725Z,101764.47
2022-10-12T13:47:01.823Z,101766.28
2022-10-12T13:49:42.816Z,101762.72
2022-10-12T13:52:12.402Z,101767.19
2022-10-12T13:54:41.378Z,101760.03
2022-10-12T13:57:40.033Z,101761.81
2022-10-12T14:00:18.934Z,101763.59
2022-10-12T14:03:00.894Z,101757.38
2022-10-12T14:05:29.705Z,101749.31
2022-10-12T14:08:00.132Z,101747.50
2022-10-12T14:10:32.564Z,101747.47
2022-10-12T14:13:01.832Z,101751.03
2022-10-12T14:15:32.875Z,101739.41
2022-10-12T14:17:59.577Z,101742.06
2022-10-12T14:20:26.253Z,101739.41
2022-10-12T14:22:53.018Z,101726.88
2022-10-12T14:25:22.643Z,101725.97
2022-10-12T14:27:56.123Z,101725.09
2022-10-12T14:30:26.083Z,101728.66
2022-10-12T14:32:59.385Z,101725.09
2022-10-12T14:35:29.767Z,101724.19
2022-10-12T14:37:57.943Z,101722.41
2022-10-12T14:40:33.871Z,101717.94
2022-10-12T14:43:20.727Z,101709.94
2022-10-12T14:45:47.547Z,101710.81
2022-10-12T14:48:18.003Z,101706.41
2022-10-12T14:50:44.762Z,101706.41
2022-10-12T14:53:13.463Z,101715.38
2022-10-12T14:55:41.473Z,101710.94
2022-10-12T14:58:09.777Z,101710.09
2022-10-12T15:00:37.410Z,101711.00
2022-10-12T15:03:04.989Z,101703.94
2022-10-12T15:05:32.792Z,101710.19
2022-10-12T15:08:00.097Z,101702.25
2022-10-12T15:10:27.966Z,101697.78
2022-10-12T15:12:55.120Z,101697.84
2022-10-12T15:15:38.546Z,101692.47
2022-10-12T15:18:05.420Z,101689.81
2022-10-12T15:20:32.838Z,101690.69
2022-10-12T15:22:59.919Z,101690.69
2022-10-12T15:25:35.053Z,101683.53
2022-10-12T15:28:03.118Z,101682.66
2022-10-12T15:30:30.729Z,101671.09
2022-10-12T15:32:57.427Z,101669.28
2022-10-12T15:35:26.437Z,101674.63
2022-10-12T15:37:56.176Z,101668.38
2022-10-12T15:40:23.277Z,101655.91
2022-10-12T15:42:50.157Z,101662.13
2022-10-12T15:45:24.601Z,101658.56
2022-10-12T15:47:52.594Z,101655.91
2022-10-12T15:50:22.272Z,101651.44
2022-10-12T15:52:49.222Z,101648.75
2022-10-12T15:55:17.336Z,101639.84
2022-10-12T15:57:44.205Z,101636.28
2022-10-12T16:00:11.969Z,101638.09
2022-10-12T16:02:39.242Z,101641.69
2022-10-12T16:05:17.072Z,101639.94
2022-10-12T16:07:43.818Z,101646.19
2022-10-12T16:10:13.963Z,101641.75
2022-10-12T16:12:45.739Z,101637.34
2022-10-12T16:15:13.590Z,101632.94
2022-10-12T16:17:40.586Z,101640.09
2022-10-12T16:20:08.263Z,101631.25
2022-10-12T16:22:35.930Z,101634.84
2022-10-12T16:25:05.400Z,101628.69
2022-10-12T16:27:32.222Z,101632.28
2022-10-12T16:30:02.262Z,101641.25
2022-10-12T16:32:29.079Z,101638.66
2022-10-12T16:34:55.846Z,101636.06
2022-10-12T16:37:22.623Z,101634.34
2022-10-12T16:39:52.095Z,101632.59
2022-10-12T16:42:18.814Z,101632.66
2022-10-12T16:44:45.668Z,101642.47
2022-10-12T16:47:12.858Z,101634.53
2022-10-12T16:49:39.936Z,101636.34
2022-10-12T16:52:06.833Z,101631.91
2022-10-12T16:54:33.699Z,101644.38
2022-10-12T16:57:00.569Z,101643.53
2022-10-12T16:59:27.518Z,101638.22
2022-10-12T17:01:54.392Z,101639.13
2022-10-12T17:04:21.163Z,101625.81
2022-10-12T17:06:48.260Z,101634.75
2022-10-12T17:09:15.389Z,101634.75
2022-10-12T17:11:42.244Z,101640.09
2022-10-12T17:14:11.970Z,101633.91
2022-10-12T17:16:47.756Z,101638.34
2022-10-12T17:19:25.633Z,101644.56
2022-10-12T17:21:53.760Z,101650.81
2022-10-12T17:24:21.234Z,101639.25
2022-10-12T17:26:48.161Z,101629.50
2022-10-12T17:29:16.677Z,101630.38
2022-10-12T17:31:43.413Z,101630.41
2022-10-12T17:34:21.725Z,101633.03
2022-10-12T17:36:49.292Z,101634.81
2022-10-12T17:39:16.480Z,101628.59
2022-10-12T17:41:43.605Z,101633.03
2022-10-12T17:44:13.136Z,101633.91
2022-10-12T17:46:40.886Z,101631.22
2022-10-12T17:49:08.664Z,101638.34
2022-10-12T17:51:35.396Z,101632.13
2022-10-12T17:54:02.113Z,101629.44
2022-10-12T17:56:28.854Z,101637.44
2022-10-12T17:58:57.920Z,101624.09
2022-10-12T18:01:25.290Z,101628.53
2022-10-12T18:03:54.571Z,101624.09
2022-10-12T18:06:23.108Z,101616.13
2022-10-12T18:08:50.802Z,101622.31
2022-10-12T18:11:18.717Z,101618.78
2022-10-12T18:13:50.612Z,101617.84
2022-10-12T18:16:23.336Z,101613.41
2022-10-12T18:18:51.741Z,101614.28
2022-10-12T18:21:20.241Z,101624.06
2022-10-12T18:23:47.274Z,101616.06
2022-10-12T18:26:14.681Z,101624.00
2022-10-12T18:28:42.003Z,101623.13
2022-10-12T18:31:08.771Z,101624.00
2022-10-12T18:33:35.510Z,101622.22
2022-10-12T18:36:06.940Z,101623.97
2022-10-12T18:38:34.169Z,101620.41
2022-10-12T18:41:05.512Z,101622.16
2022-10-12T18:43:32.473Z,101624.81
2022-10-12T18:45:59.301Z,101626.59
2022-10-12T18:48:26.009Z,101628.28
2022-10-12T18:50:52.717Z,101626.50
2022-10-12T18:53:19.890Z,101629.16
2022-10-12T18:55:47.048Z,101628.28
2022-10-12T18:58:13.751Z,101631.78
2022-10-12T19:00:41.483Z,101630.00
2022-10-12T19:03:08.801Z,101627.31
2022-10-12T19:05:35.572Z,101620.22
2022-10-12T19:08:02.318Z,101627.31
2022-10-12T19:10:29.023Z,101610.47
2022-10-12T19:12:55.885Z,101613.09
2022-10-12T19:15:22.641Z,101620.16
2022-10-12T19:17:49.342Z,101613.06
2022-10-12T19:20:16.110Z,101617.47
2022-10-12T19:22:42.816Z,101618.34
2022-10-12T19:25:09.719Z,101616.56
2022-10-12T19:27:36.452Z,101624.56
2022-10-12T19:30:03.936Z,101619.25
2022-10-12T19:32:30.720Z,101622.84
2022-10-12T19:34:58.182Z,101626.38
2022-10-12T19:37:24.908Z,101621.97
2022-10-12T19:39:51.633Z,101619.31
2022-10-12T19:42:18.558Z,101609.56
2022-10-12T19:44:45.530Z,101610.47
2022-10-12T19:47:12.212Z,101600.72
2022-10-12T19:49:49.276Z,101607.84
2022-10-12T19:52:16.265Z,101607.81
2022-10-12T19:54:43.397Z,101603.41
2022-10-12T19:57:10.707Z,101602.50
2022-10-12T19:59:37.609Z,101598.97
2022-10-12T20:02:07.199Z,101593.66
2022-10-12T20:04:41.113Z,101598.97
2022-10-12T20:07:07.959Z,101594.56
2022-10-12T20:09:34.729Z,101594.56
2022-10-12T20:12:01.498Z,101591.03
2022-10-12T20:14:29.889Z,101588.38
2022-10-12T20:16:56.738Z,101593.69
2022-10-12T20:19:23.602Z,101584.81
2022-10-12T20:21:50.419Z,101588.34
2022-10-12T20:24:17.156Z,101591.03
2022-10-12T20:26:43.949Z,101597.22
2022-10-12T20:29:10.675Z,101590.09
2022-10-12T20:31:37.402Z,101593.66
2022-10-12T20:34:04.175Z,101585.66
2022-10-12T20:36:32.151Z,101585.66
2022-10-12T20:38:59.248Z,101588.31
2022-10-12T20:41:27.488Z,101594.50
2022-10-12T20:43:58.578Z,101594.50
2022-10-12T20:46:25.946Z,101586.53
2022-10-12T20:48:58.337Z,101590.09
2022-10-12T20:51:35.668Z,101584.78
2022-10-12T20:54:03.573Z,101575.03
2022-10-12T20:56:32.309Z,101584.78
2022-10-12T20:58:59.166Z,101575.88
2022-10-12T21:01:26.200Z,101570.56
2022-10-12T21:03:53.508Z,101570.56
2022-10-12T21:06:21.481Z,101553.75
2022-10-12T21:08:52.752Z,101563.47
2022-10-12T21:11:19.867Z,101559.94
2022-10-12T21:13:46.686Z,101561.69
2022-10-12T21:16:13.891Z,101563.47
2022-10-12T21:18:41.462Z,101553.72
2022-10-12T21:21:14.637Z,101552.84
2022-10-12T21:23:42.523Z,101556.38
2022-10-12T21:26:13.452Z,101552.84
2022-10-12T21:28:40.433Z,101561.69
2022-10-12T21:31:07.694Z,101564.34
2022-10-12T21:33:35.384Z,101559.00
2022-10-12T21:36:13.681Z,101554.56
2022-10-12T21:38:41.128Z,101566.94
2022-10-12T21:41:09.680Z,101555.44
2022-10-12T21:43:37.320Z,101545.69
2022-10-12T21:46:16.863Z,101547.44
2022-10-12T21:48:43.710Z,101541.22
2022-10-12T21:51:10.442Z,101537.66
2022-10-12T21:53:37.970Z,101543.84
2022-10-12T21:56:13.765Z,101544.72
2022-10-12T21:58:40.639Z,101540.28
2022-10-12T22:01:11.120Z,101553.56
2022-10-12T22:03:37.917Z,101555.31
2022-10-12T22:06:04.990Z,101552.66
2022-10-12T22:08:32.215Z,101551.75
2022-10-12T22:11:09.638Z,101549.09
2022-10-12T22:13:36.857Z,101549.97
2022-10-12T22:16:09.361Z,101550.84
2022-10-12T22:18:36.333Z,101548.19
2022-10-12T22:21:05.697Z,101544.66
2022-10-12T22:23:32.761Z,101544.66
2022-10-12T22:26:04.960Z,101542.00
2022-10-12T22:28:31.693Z,101544.69
2022-10-12T22:30:58.481Z,101546.44
2022-10-12T22:33:25.338Z,101547.31
2022-10-12T22:35:56.652Z,101534.03
2022-10-12T22:38:23.349Z,101531.38
2022-10-12T22:40:54.672Z,101538.47
2022-10-12T22:43:21.905Z,101530.50
2022-10-12T22:45:48.600Z,101534.94
2022-10-12T22:48:15.455Z,101534.94
2022-10-12T22:50:45.841Z,101529.63
2022-10-12T22:53:13.646Z,101530.50
2022-10-12T22:55:40.845Z,101528.72
2022-10-12T22:58:07.583Z,101535.78
2022-10-12T23:00:34.368Z,101528.69
2022-10-12T23:03:01.250Z,101530.44
2022-10-12T23:05:28.595Z,101527.75
2022-10-12T23:07:55.593Z,101524.22
2022-10-12T23:10:22.384Z,101522.41
2022-10-12T23:12:49.202Z,101525.94
2022-10-12T23:15:15.987Z,101525.03
2022-10-12T23:17:42.711Z,101517.06
2022-10-12T23:20:09.869Z,101523.22
2022-10-12T23:22:36.600Z,101517.03
2022-10-12T23:25:03.512Z,101523.22
2022-10-12T23:27:30.231Z,101522.34
2022-10-12T23:29:56.947Z,101530.28
2022-10-12T23:32:23.644Z,101528.50
2022-10-12T23:34:50.372Z,101525.84
2022-10-12T23:37:17.050Z,101522.31
2022-10-12T23:39:43.737Z,101518.72
2022-10-12T23:42:10.456Z,101518.72
2022-10-12T23:44:37.203Z,101509.84
2022-10-12T23:47:03.921Z,101512.50
2022-10-12T23:49:30.635Z,101510.69
2022-10-12T23:51:57.617Z,101513.31
2022-10-12T23:54:24.330Z,101507.94
2022-10-12T23:56:51.052Z,101502.63
2022-10-12T23:59:17.789Z,101504.41
